createdAt,value
2022-10-07T00:01:25.764Z,3.60
2022-10-07T00:03:55.593Z,3.70
2022-10-07T00:06:24.382Z,3.63
2022-10-07T00:08:53.842Z,3.90
2022-10-07T00:11:23.960Z,3.42
2022-10-07T00:13:54.639Z,4.20
2022-10-07T00:16:25.301Z,3.80
2022-10-07T00:18:54.649Z,3.90
2022-10-07T00:21:24.446Z,4.15
2022-10-07T00:23:53.087Z,3.65
2022-10-07T00:26:22.235Z,3.70
2022-10-07T00:28:50.958Z,3.90
2022-10-07T00:31:21.501Z,3.72
2022-10-07T00:33:50.357Z,3.35
2022-10-07T00:36:20.766Z,3.60
2022-10-07T00:38:53.392Z,3.60
2022-10-07T00:41:23.368Z,3.67
2022-10-07T00:43:51.896Z,3.28
2022-10-07T00:46:25.729Z,3.20
2022-10-07T00:48:54.529Z,3.40
2022-10-07T00:51:23.009Z,3.03
2022-10-07T00:53:54.064Z,3.30
2022-10-07T00:56:23.297Z,3.45
2022-10-07T00:58:52.026Z,4.00
2022-10-07T01:01:20.936Z,3.75
2022-10-07T01:03:50.037Z,4.00
2022-10-07T01:06:19.300Z,4.03
2022-10-07T01:08:48.222Z,4.32
2022-10-07T01:11:23.534Z,4.35
2022-10-07T01:13:57.102Z,3.83
2022-10-07T01:16:30.574Z,3.70
2022-10-07T01:19:04.023Z,3.90
2022-10-07T01:21:37.353Z,3.90
2022-10-07T01:24:09.763Z,3.90
2022-10-07T01:26:47.058Z,4.15
2022-10-07T01:29:19.668Z,3.25
2022-10-07T01:31:50.544Z,3.85
2022-10-07T01:34:20.641Z,3.13
2022-10-07T01:36:52.329Z,3.90
2022-10-07T01:39:22.291Z,3.22
2022-10-07T01:41:50.843Z,3.78
2022-10-07T01:44:20.611Z,3.47
2022-10-07T01:46:48.919Z,3.90
2022-10-07T01:49:17.200Z,3.95
2022-10-07T01:51:51.804Z,3.03
2022-10-07T01:54:25.687Z,2.85
2022-10-07T01:57:01.220Z,3.65
2022-10-07T01:59:39.795Z,3.22
2022-10-07T02:02:12.847Z,3.03
2022-10-07T02:04:44.894Z,3.40
2022-10-07T02:07:19.845Z,3.33
2022-10-07T02:09:50.045Z,3.00
2022-10-07T02:12:23.358Z,3.50
2022-10-07T02:14:57.140Z,3.17
2022-10-07T02:17:27.287Z,3.80
2022-10-07T02:19:57.489Z,3.65
2022-10-07T02:22:28.315Z,3.20
2022-10-07T02:24:59.082Z,3.28
2022-10-07T02:27:30.690Z,3.40
2022-10-07T02:30:03.761Z,3.65
2022-10-07T02:32:34.280Z,3.15
2022-10-07T02:35:04.141Z,3.40
2022-10-07T02:37:35.404Z,3.67
2022-10-07T02:40:11.208Z,3.70
2022-10-07T02:42:41.542Z,3.30
2022-10-07T02:45:16.917Z,3.13
2022-10-07T02:47:50.086Z,3.90
2022-10-07T02:50:22.385Z,2.75
2022-10-07T02:52:52.177Z,3.15
2022-10-07T02:55:23.071Z,3.20
2022-10-07T02:57:53.424Z,3.53
2022-10-07T03:00:23.752Z,3.63
2022-10-07T03:02:54.878Z,3.28
2022-10-07T03:05:27.100Z,3.00
2022-10-07T03:08:01.119Z,2.75
2022-10-07T03:10:29.706Z,3.42
2022-10-07T03:12:58.754Z,2.90
2022-10-07T03:15:28.602Z,3.20
2022-10-07T03:17:58.103Z,2.75
2022-10-07T03:20:28.208Z,3.03
2022-10-07T03:22:56.547Z,2.75
2022-10-07T03:25:25.183Z,3.00
2022-10-07T03:27:54.115Z,2.60
2022-10-07T03:30:24.576Z,2.92
2022-10-07T03:32:55.494Z,2.70
2022-10-07T03:35:24.165Z,2.78
2022-10-07T03:37:52.736Z,2.78
2022-10-07T03:40:21.131Z,3.33
2022-10-07T03:42:50.229Z,3.35
2022-10-07T03:45:20.759Z,2.70
2022-10-07T03:47:49.086Z,2.55
2022-10-07T03:50:18.901Z,3.60
2022-10-07T03:52:47.230Z,2.90
2022-10-07T03:55:16.273Z,2.90
2022-10-07T03:57:54.322Z,2.88
2022-10-07T04:00:26.457Z,2.75
2022-10-07T04:02:57.734Z,2.97
2022-10-07T04:05:27.676Z,2.17
2022-10-07T04:07:56.888Z,2.80
2022-10-07T04:10:25.647Z,2.53
2022-10-07T04:12:54.332Z,2.85
2022-10-07T04:15:23.023Z,2.50
2022-10-07T04:17:51.545Z,2.72
2022-10-07T04:20:20.854Z,2.80
2022-10-07T04:22:50.847Z,2.30
2022-10-07T04:25:34.423Z,2.78
2022-10-07T04:28:08.458Z,2.20
2022-10-07T04:30:40.417Z,2.47
2022-10-07T04:33:09.005Z,3.10
2022-10-07T04:35:38.631Z,2.80
2022-10-07T04:38:09.778Z,3.13
2022-10-07T04:40:40.938Z,2.97
2022-10-07T04:43:24.186Z,2.55
2022-10-07T04:46:02.403Z,2.78
2022-10-07T04:48:31.061Z,2.88
2022-10-07T04:51:02.523Z,2.72
2022-10-07T04:53:32.303Z,3.08
2022-10-07T04:56:01.411Z,2.95
2022-10-07T04:58:31.161Z,3.00
2022-10-07T05:01:00.838Z,2.97
2022-10-07T05:03:30.738Z,3.17
2022-10-07T05:06:05.768Z,2.95
2022-10-07T05:08:37.235Z,2.80
2022-10-07T05:11:07.142Z,2.58
2022-10-07T05:13:42.789Z,2.70
2022-10-07T05:16:12.124Z,2.72
2022-10-07T05:18:41.335Z,2.90
2022-10-07T05:21:13.717Z,3.05
2022-10-07T05:23:47.536Z,3.38
2022-10-07T05:26:21.057Z,2.65
2022-10-07T05:28:54.124Z,2.90
2022-10-07T05:31:28.929Z,2.85
2022-10-07T05:34:01.167Z,2.30
2022-10-07T05:36:30.148Z,2.47
2022-10-07T05:39:01.979Z,2.80
2022-10-07T05:41:46.176Z,2.90
2022-10-07T05:44:17.965Z,2.53
2022-10-07T05:46:47.684Z,2.95
2022-10-07T05:49:17.456Z,2.83
2022-10-07T05:51:46.067Z,3.35
2022-10-07T05:54:16.053Z,3.38
2022-10-07T05:56:46.261Z,2.95
2022-10-07T05:59:16.965Z,3.20
2022-10-07T06:01:46.930Z,3.13
2022-10-07T06:04:22.205Z,3.58
2022-10-07T06:06:53.335Z,2.95
2022-10-07T06:09:40.745Z,3.92
2022-10-07T06:12:32.325Z,3.55
2022-10-07T06:15:04.061Z,3.17
2022-10-07T06:17:32.441Z,3.10
2022-10-07T06:20:02.942Z,3.05
2022-10-07T06:22:31.373Z,3.47
2022-10-07T06:25:02.418Z,3.00
2022-10-07T06:27:32.319Z,2.95
2022-10-07T06:30:00.811Z,2.58
2022-10-07T06:32:30.467Z,2.60
2022-10-07T06:34:58.820Z,2.45
2022-10-07T06:37:27.970Z,2.42
2022-10-07T06:39:59.465Z,2.60
2022-10-07T06:42:31.216Z,2.83
2022-10-07T06:45:19.530Z,2.17
2022-10-07T06:47:50.291Z,2.55
2022-10-07T06:50:18.695Z,3.35
2022-10-07T06:52:47.157Z,2.72
2022-10-07T06:55:15.791Z,2.92
2022-10-07T06:57:46.582Z,4.13
2022-10-07T07:00:18.488Z,5.20
2022-10-07T07:02:47.945Z,3.50
2022-10-07T07:05:17.007Z,2.97
2022-10-07T07:07:47.464Z,3.25
2022-10-07T07:10:16.455Z,3.10
2022-10-07T07:12:50.244Z,3.03
2022-10-07T07:15:19.056Z,2.75
2022-10-07T07:17:48.291Z,3.33
2022-10-07T07:20:17.193Z,5.38
2022-10-07T07:22:46.071Z,3.05
2022-10-07T07:25:14.950Z,2.58
2022-10-07T07:27:43.920Z,2.65
2022-10-07T07:30:15.398Z,2.60
2022-10-07T07:32:45.755Z,3.00
2022-10-07T07:35:14.917Z,2.40
2022-10-07T07:37:43.686Z,2.45
2022-10-07T07:40:12.340Z,2.42
2022-10-07T07:42:40.834Z,2.47
2022-10-07T07:45:09.495Z,2.42
2022-10-07T07:47:39.155Z,2.15
2022-10-07T07:50:08.363Z,2.50
2022-10-07T07:52:36.704Z,2.47
2022-10-07T07:55:07.460Z,2.10
2022-10-07T07:57:38.093Z,2.35
2022-10-07T08:00:12.647Z,2.40
2022-10-07T08:02:45.539Z,3.03
2022-10-07T08:05:23.745Z,2.70
2022-10-07T08:07:54.870Z,2.30
2022-10-07T08:10:24.957Z,2.00
2022-10-07T08:12:53.316Z,2.40
2022-10-07T08:15:21.736Z,2.00
2022-10-07T08:17:51.463Z,2.33
2022-10-07T08:20:19.872Z,2.67
2022-10-07T08:22:49.700Z,2.55
2022-10-07T08:25:18.438Z,2.25
2022-10-07T08:27:48.594Z,2.47
2022-10-07T08:30:17.332Z,2.42
2022-10-07T08:32:47.114Z,2.40
2022-10-07T08:35:16.801Z,3.10
2022-10-07T08:37:45.316Z,2.58
2022-10-07T08:40:15.835Z,3.65
2022-10-07T08:42:44.773Z,2.45
2022-10-07T08:45:15.742Z,2.33
2022-10-07T08:47:45.903Z,3.53
2022-10-07T08:50:19.467Z,2.22
2022-10-07T08:52:51.988Z,2.45
2022-10-07T08:55:24.133Z,3.67
2022-10-07T08:58:03.989Z,2.33
2022-10-07T09:00:37.718Z,2.30
2022-10-07T09:03:12.011Z,3.10
2022-10-07T09:05:44.218Z,2.42
2022-10-07T09:08:17.315Z,2.10
2022-10-07T09:10:48.525Z,2.33
2022-10-07T09:13:20.058Z,2.00
2022-10-07T09:16:17.789Z,1.70
2022-10-07T09:18:47.757Z,2.15
2022-10-07T09:21:20.038Z,2.10
2022-10-07T09:23:50.342Z,2.92
2022-10-07T09:26:18.937Z,2.30
2022-10-07T09:28:47.440Z,2.50
2022-10-07T09:31:16.458Z,2.05
2022-10-07T09:33:45.636Z,2.22
2022-10-07T09:36:26.050Z,2.58
2022-10-07T09:38:55.705Z,2.00
2022-10-07T09:41:31.318Z,18.50
2022-10-07T09:44:07.670Z,6.00
2022-10-07T09:46:39.480Z,3.65
2022-10-07T09:49:07.876Z,3.10
2022-10-07T09:51:38.291Z,2.42
2022-10-07T09:54:18.992Z,2.08
2022-10-07T09:56:48.185Z,2.28
2022-10-07T09:59:20.693Z,3.83
2022-10-07T10:01:56.000Z,2.30
2022-10-07T10:04:26.890Z,2.55
2022-10-07T10:06:56.169Z,2.28
2022-10-07T10:09:27.492Z,2.35
2022-10-07T10:12:03.608Z,5.10
2022-10-07T10:14:37.676Z,2.22
2022-10-07T10:17:06.113Z,2.30
2022-10-07T10:19:37.224Z,5.45
2022-10-07T10:22:05.903Z,2.83
2022-10-07T10:24:53.945Z,2.63
2022-10-07T10:27:24.456Z,2.42
2022-10-07T10:29:56.627Z,2.30
2022-10-07T10:32:43.258Z,2.60
2022-10-07T10:35:15.114Z,4.45
2022-10-07T10:37:52.512Z,2.47
2022-10-07T10:40:25.968Z,2.40
2022-10-07T10:42:58.946Z,2.60
2022-10-07T10:45:34.003Z,2.58
2022-10-07T10:48:17.820Z,2.28
2022-10-07T10:50:53.602Z,3.08
2022-10-07T10:53:29.353Z,2.60
2022-10-07T10:56:07.048Z,2.88
2022-10-07T10:58:42.840Z,3.92
2022-10-07T11:01:15.311Z,2.40
2022-10-07T11:03:50.122Z,2.58
2022-10-07T11:06:19.941Z,2.35
2022-10-07T11:08:50.816Z,2.67
2022-10-07T11:11:21.529Z,2.22
2022-10-07T11:13:52.618Z,2.33
2022-10-07T11:16:22.453Z,2.40
2022-10-07T11:18:52.798Z,2.15
2022-10-07T11:21:23.730Z,2.20
2022-10-07T11:23:56.777Z,2.55
2022-10-07T11:26:32.350Z,2.70
2022-10-07T11:29:05.784Z,2.95
2022-10-07T11:31:36.190Z,2.17
2022-10-07T11:34:08.936Z,1.98
2022-10-07T11:36:41.093Z,2.05
2022-10-07T11:39:09.886Z,2.00
2022-10-07T11:41:45.187Z,1.92
2022-10-07T11:44:17.929Z,2.53
2022-10-07T11:46:47.221Z,2.17
2022-10-07T11:49:18.798Z,2.20
2022-10-07T11:51:52.002Z,1.98
2022-10-07T11:54:22.296Z,2.20
2022-10-07T11:56:52.959Z,2.10
2022-10-07T11:59:41.347Z,2.10
2022-10-07T12:02:25.160Z,2.20
2022-10-07T12:04:54.633Z,5.25
2022-10-07T12:07:57.993Z,2.70
2022-10-07T12:10:28.065Z,2.17
2022-10-07T12:12:59.240Z,1.35
2022-10-07T12:15:32.701Z,1.55
2022-10-07T12:18:20.332Z,1.63
2022-10-07T12:20:59.388Z,1.20
2022-10-07T12:23:51.730Z,1.67
2022-10-07T12:26:51.361Z,1.33
2022-10-07T12:29:35.577Z,1.20
2022-10-07T12:32:04.657Z,1.40
2022-10-07T12:34:41.223Z,1.40
2022-10-07T12:37:28.369Z,1.05
2022-10-07T12:39:57.605Z,1.30
2022-10-07T12:42:27.006Z,1.33
2022-10-07T12:44:57.553Z,1.08
2022-10-07T12:47:29.477Z,1.38
2022-10-07T12:49:59.898Z,1.60
2022-10-07T12:52:37.232Z,1.63
2022-10-07T12:55:09.434Z,1.30
2022-10-07T12:57:39.849Z,1.40
2022-10-07T13:00:13.160Z,1.33
2022-10-07T13:02:57.131Z,2.67
2022-10-07T13:05:43.820Z,1.20
2022-10-07T13:08:35.660Z,1.17
2022-10-07T13:11:23.843Z,1.65
2022-10-07T13:13:56.631Z,1.20
2022-10-07T13:16:31.754Z,1.48
2022-10-07T13:19:01.782Z,1.20
2022-10-07T13:21:34.026Z,1.67
2022-10-07T13:24:02.347Z,1.60
2022-10-07T13:26:30.709Z,1.30
2022-10-07T13:29:00.364Z,1.50
2022-10-07T13:31:31.765Z,1.33
2022-10-07T13:34:01.153Z,1.25
2022-10-07T13:36:30.325Z,1.63
2022-10-07T13:39:11.642Z,1.23
2022-10-07T13:41:42.444Z,1.10
2022-10-07T13:44:12.973Z,1.20
2022-10-07T13:46:48.809Z,1.73
2022-10-07T13:49:22.914Z,1.38
2022-10-07T13:51:56.102Z,1.38
2022-10-07T13:54:25.929Z,1.30
2022-10-07T13:56:54.387Z,1.85
2022-10-07T13:59:23.261Z,1.67
2022-10-07T14:01:53.704Z,1.48
2022-10-07T14:04:26.988Z,1.13
2022-10-07T14:06:57.685Z,1.25
2022-10-07T14:09:35.159Z,1.50
2022-10-07T14:12:05.099Z,1.33
2022-10-07T14:14:35.988Z,1.75
2022-10-07T14:17:10.535Z,1.20
2022-10-07T14:19:39.934Z,1.48
2022-10-07T14:22:17.628Z,1.60
2022-10-07T14:24:53.251Z,1.70
2022-10-07T14:27:40.522Z,1.77
2022-10-07T14:30:23.709Z,1.23
2022-10-07T14:33:17.491Z,1.42
2022-10-07T14:35:46.873Z,1.30
2022-10-07T14:38:22.435Z,1.30
2022-10-07T14:40:50.753Z,1.60
2022-10-07T14:43:19.036Z,1.92
2022-10-07T14:45:47.546Z,1.70
2022-10-07T14:48:17.245Z,1.42
2022-10-07T14:50:45.622Z,1.60
2022-10-07T14:53:16.729Z,1.88
2022-10-07T14:55:45.113Z,1.55
2022-10-07T14:58:13.417Z,1.83
2022-10-07T15:00:41.794Z,1.60
2022-10-07T15:03:10.102Z,1.80
2022-10-07T15:05:40.307Z,1.60
2022-10-07T15:08:09.336Z,1.85
2022-10-07T15:10:37.625Z,1.67
2022-10-07T15:13:11.078Z,1.70
2022-10-07T15:15:42.043Z,1.77
2022-10-07T15:18:11.550Z,1.90
2022-10-07T15:20:41.461Z,2.10
2022-10-07T15:23:10.156Z,1.70
2022-10-07T15:25:42.516Z,1.67
2022-10-07T15:28:10.959Z,1.92
2022-10-07T15:30:39.715Z,1.98
2022-10-07T15:33:08.550Z,2.13
2022-10-07T15:35:36.865Z,1.60
2022-10-07T15:38:06.529Z,1.98
2022-10-07T15:40:34.895Z,2.28
2022-10-07T15:43:03.206Z,3.72
2022-10-07T15:45:31.527Z,3.85
2022-10-07T15:48:01.067Z,4.32
2022-10-07T15:50:29.400Z,7.63
2022-10-07T15:52:57.701Z,6.63
2022-10-07T15:55:27.363Z,4.57
2022-10-07T15:57:56.517Z,4.47
2022-10-07T16:00:24.833Z,4.20
2022-10-07T16:02:54.397Z,2.95
2022-10-07T16:05:24.216Z,2.30
2022-10-07T16:07:52.515Z,2.42
2022-10-07T16:10:20.821Z,2.92
2022-10-07T16:12:50.548Z,3.10
2022-10-07T16:15:18.839Z,2.20
2022-10-07T16:17:47.236Z,2.60
2022-10-07T16:20:18.435Z,3.08
2022-10-07T16:22:47.015Z,4.95
2022-10-07T16:25:15.826Z,7.05
2022-10-07T16:28:01.734Z,6.45
2022-10-07T16:30:43.301Z,6.82
2022-10-07T16:33:11.609Z,4.45
2022-10-07T16:35:39.892Z,3.08
2022-10-07T16:38:08.200Z,2.47
2022-10-07T16:40:36.494Z,2.30
2022-10-07T16:43:04.834Z,2.28
2022-10-07T16:45:34.694Z,2.33
2022-10-07T16:48:03.000Z,2.00
2022-10-07T16:50:31.423Z,2.00
2022-10-07T16:53:01.094Z,2.25
2022-10-07T16:55:29.368Z,2.70
2022-10-07T16:57:57.684Z,2.42
2022-10-07T17:00:26.264Z,2.20
2022-10-07T17:02:55.956Z,2.03
2022-10-07T17:05:24.268Z,2.50
2022-10-07T17:07:52.642Z,1.98
2022-10-07T17:10:21.175Z,2.20
2022-10-07T17:12:49.505Z,1.98
2022-10-07T17:15:17.847Z,2.35
2022-10-07T17:17:46.959Z,2.40
2022-10-07T17:20:16.963Z,2.53
2022-10-07T17:22:45.592Z,2.17
2022-10-07T17:25:14.087Z,2.60
2022-10-07T17:27:42.371Z,2.75
2022-10-07T17:30:11.462Z,2.40
2022-10-07T17:32:39.765Z,2.75
2022-10-07T17:35:08.881Z,3.05
2022-10-07T17:37:38.747Z,2.40
2022-10-07T17:40:07.545Z,2.22
2022-10-07T17:42:35.867Z,1.90
2022-10-07T17:45:04.750Z,2.50
2022-10-07T17:47:33.561Z,2.53
2022-10-07T17:50:01.903Z,2.00
2022-10-07T17:52:32.119Z,2.45
2022-10-07T17:55:01.766Z,2.08
2022-10-07T17:57:30.066Z,2.25
2022-10-07T17:59:58.375Z,2.72
2022-10-07T18:02:27.353Z,2.92
2022-10-07T18:04:55.773Z,2.40
2022-10-07T18:07:24.093Z,2.60
2022-10-07T18:09:52.425Z,2.53
2022-10-07T18:12:39.828Z,2.45
2022-10-07T18:15:20.578Z,2.00
2022-10-07T18:17:50.673Z,2.25
2022-10-07T18:20:19.810Z,2.10
2022-10-07T18:22:48.096Z,2.35
2022-10-07T18:25:16.420Z,2.80
2022-10-07T18:27:46.204Z,2.08
2022-10-07T18:30:14.847Z,2.35
2022-10-07T18:32:43.177Z,2.85
2022-10-07T18:35:11.482Z,2.80
2022-10-07T18:37:39.789Z,2.22
2022-10-07T18:40:08.804Z,2.13
2022-10-07T18:42:38.436Z,1.85
2022-10-07T18:45:08.722Z,2.80
2022-10-07T18:47:37.076Z,2.65
2022-10-07T18:50:05.839Z,2.70
2022-10-07T18:52:34.176Z,2.40
2022-10-07T18:55:02.472Z,2.42
2022-10-07T18:57:30.791Z,2.58
2022-10-07T18:59:59.122Z,4.45
2022-10-07T19:02:28.805Z,3.65
2022-10-07T19:04:57.171Z,3.75
2022-10-07T19:07:25.501Z,3.83
2022-10-07T19:09:53.806Z,4.00
2022-10-07T19:12:39.526Z,4.05
2022-10-07T19:15:08.784Z,3.00
2022-10-07T19:17:38.481Z,2.47
2022-10-07T19:20:07.209Z,2.30
2022-10-07T19:22:35.497Z,2.83
2022-10-07T19:25:21.293Z,2.30
2022-10-07T19:27:49.664Z,2.22
2022-10-07T19:30:18.056Z,2.30
2022-10-07T19:32:47.897Z,2.60
2022-10-07T19:35:16.219Z,2.50
2022-10-07T19:37:44.826Z,2.28
2022-10-07T19:40:13.313Z,2.38
2022-10-07T19:42:41.628Z,2.50
2022-10-07T19:45:10.743Z,2.38
2022-10-07T19:47:39.038Z,2.28
2022-10-07T19:50:09.169Z,2.38
2022-10-07T19:52:37.449Z,2.42
2022-10-07T19:55:06.051Z,2.15
2022-10-07T19:57:34.356Z,2.35
2022-10-07T20:00:02.716Z,2.15
2022-10-07T20:02:40.632Z,2.33
2022-10-07T20:05:10.542Z,2.40
2022-10-07T20:07:38.840Z,2.40
2022-10-07T20:10:08.777Z,2.50
2022-10-07T20:12:39.852Z,2.55
2022-10-07T20:15:09.129Z,3.03
2022-10-07T20:17:39.271Z,3.90
2022-10-07T20:20:08.183Z,3.78
2022-10-07T20:22:37.827Z,4.28
2022-10-07T20:25:06.578Z,4.80
2022-10-07T20:27:35.407Z,4.68
2022-10-07T20:30:07.412Z,5.57
2022-10-07T20:32:35.707Z,5.20
2022-10-07T20:35:05.232Z,5.10
2022-10-07T20:37:33.524Z,4.75
2022-10-07T20:40:21.056Z,4.82
2022-10-07T20:42:49.610Z,4.43
2022-10-07T20:45:18.211Z,4.32
2022-10-07T20:47:47.219Z,5.13
2022-10-07T20:50:15.602Z,4.68
2022-10-07T20:52:45.305Z,5.07
2022-10-07T20:55:15.162Z,5.78
2022-10-07T20:57:43.473Z,6.10
2022-10-07T21:00:15.776Z,6.10
2022-10-07T21:02:45.377Z,6.70
2022-10-07T21:05:14.023Z,7.60
2022-10-07T21:07:42.833Z,7.85
2022-10-07T21:10:11.210Z,8.13
2022-10-07T21:12:40.969Z,7.20
2022-10-07T21:15:09.489Z,6.70
2022-10-07T21:17:38.652Z,7.30
2022-10-07T21:20:07.218Z,7.07
2022-10-07T21:22:36.265Z,7.53
2022-10-07T21:25:04.744Z,6.75
2022-10-07T21:27:33.606Z,6.30
2022-10-07T21:30:03.561Z,6.70
2022-10-07T21:32:31.846Z,6.25
2022-10-07T21:35:00.116Z,6.22
2022-10-07T21:37:29.594Z,5.78
2022-10-07T21:39:57.928Z,5.75
2022-10-07T21:42:26.222Z,6.35
2022-10-07T21:44:55.760Z,6.20
2022-10-07T21:47:25.852Z,5.78
2022-10-07T21:49:56.847Z,6.30
2022-10-07T21:52:25.210Z,6.15
2022-10-07T21:54:55.265Z,5.80
2022-10-07T21:57:23.546Z,5.40
2022-10-07T21:59:53.790Z,6.22
2022-10-07T22:02:22.163Z,6.05
2022-10-07T22:04:51.849Z,6.20
2022-10-07T22:07:37.680Z,7.68
2022-10-07T22:10:06.270Z,6.75
2022-10-07T22:12:35.406Z,7.25
2022-10-07T22:15:03.697Z,8.02
2022-10-07T22:17:33.851Z,8.05
2022-10-07T22:20:03.497Z,7.45
2022-10-07T22:22:31.980Z,7.47
2022-10-07T22:25:00.713Z,7.85
2022-10-07T22:27:29.006Z,7.13
2022-10-07T22:29:57.275Z,7.88
2022-10-07T22:32:25.589Z,7.20
2022-10-07T22:35:11.547Z,6.25
2022-10-07T22:37:41.692Z,6.88
2022-10-07T22:40:10.769Z,6.95
2022-10-07T22:42:39.128Z,6.40
2022-10-07T22:45:07.851Z,6.45
2022-10-07T22:47:37.407Z,6.70
2022-10-07T22:50:07.749Z,5.90
2022-10-07T22:52:36.145Z,5.93
2022-10-07T22:55:06.790Z,6.43
2022-10-07T22:57:36.348Z,6.22
2022-10-07T23:00:05.178Z,7.07
2022-10-07T23:02:33.569Z,7.68
2022-10-07T23:05:02.242Z,6.20
2022-10-07T23:07:30.535Z,6.40
2022-10-07T23:09:58.840Z,6.53
2022-10-07T23:12:28.503Z,6.03
2022-10-07T23:14:56.789Z,5.10
2022-10-07T23:17:25.081Z,6.18
2022-10-07T23:19:54.321Z,5.45
2022-10-07T23:22:22.600Z,5.70
2022-10-07T23:24:52.356Z,5.50
2022-10-07T23:27:21.049Z,5.75
2022-10-07T23:29:50.845Z,5.53
2022-10-07T23:32:19.908Z,5.63
2022-10-07T23:34:48.184Z,5.97
2022-10-07T23:37:16.518Z,6.00
2022-10-07T23:39:44.841Z,5.85
2022-10-07T23:42:13.133Z,5.50
2022-10-07T23:44:41.419Z,5.68
2022-10-07T23:47:11.036Z,6.43
2022-10-07T23:49:39.320Z,5.93
2022-10-07T23:52:07.610Z,5.47
2022-10-07T23:54:35.905Z,4.82
2022-10-07T23:57:04.197Z,5.57
2022-10-07T23:59:32.497Z,5.90
